createdAt,value
2019-05-14T00:02:14.094Z,99470.38
2019-05-14T00:04:47.075Z,99473.34
2019-05-14T00:07:17.990Z,99473.10
2019-05-14T00:09:52.536Z,99477.13
2019-05-14T00:12:35.484Z,99476.68
2019-05-14T00:15:07.371Z,99475.77
2019-05-14T00:17:37.296Z,99475.76
2019-05-14T00:20:10.231Z,99462.66
2019-05-14T00:22:42.864Z,99465.66
2019-05-14T00:25:13.059Z,99464.17
2019-05-14T00:27:43.130Z,99462.81
2019-05-14T00:30:16.639Z,99460.16
2019-05-14T00:32:52.749Z,99455.80
2019-05-14T00:35:23.157Z,99448.91
2019-05-14T00:37:53.157Z,99451.09
2019-05-14T00:40:38.131Z,99450.39
2019-05-14T00:43:08.174Z,99439.96
2019-05-14T00:45:44.240Z,99439.27
2019-05-14T00:48:14.363Z,99436.50
2019-05-14T00:50:51.694Z,99440.20
2019-05-14T00:53:28.577Z,99439.73
2019-05-14T00:55:56.482Z,99442.16
2019-05-14T00:58:31.101Z,99432.73
2019-05-14T01:01:01.724Z,99439.50
2019-05-14T01:03:32.576Z,99444.30
2019-05-14T01:06:03.236Z,99444.72
2019-05-14T01:08:37.237Z,99441.84
2019-05-14T01:11:07.464Z,99437.87
2019-05-14T01:13:41.898Z,99434.33
2019-05-14T01:16:12.217Z,99434.95
2019-05-14T01:18:43.290Z,99438.12
2019-05-14T01:21:14.897Z,99435.34
2019-05-14T01:23:44.812Z,99438.66
2019-05-14T01:26:21.772Z,99427.86
2019-05-14T01:28:51.937Z,99427.89
2019-05-14T01:31:22.927Z,99426.76
2019-05-14T01:33:54.425Z,99425.31
2019-05-14T01:36:24.503Z,99434.63
2019-05-14T01:38:55.695Z,99427.48
2019-05-14T01:41:25.978Z,99424.52
2019-05-14T01:43:56.073Z,99421.91
2019-05-14T01:46:26.028Z,99425.17
2019-05-14T01:48:56.171Z,99421.34
2019-05-14T01:51:26.385Z,99406.81
2019-05-14T01:53:56.383Z,99409.42
2019-05-14T01:56:26.494Z,99402.86
2019-05-14T01:59:01.693Z,99406.18
2019-05-14T02:01:31.761Z,99396.50
2019-05-14T02:04:02.426Z,99402.24
2019-05-14T02:06:32.525Z,99393.09
2019-05-14T02:09:05.686Z,99395.89
2019-05-14T02:11:35.738Z,99396.61
2019-05-14T02:14:06.336Z,99402.01
2019-05-14T02:16:36.485Z,99397.86
2019-05-14T02:19:06.587Z,99399.45
2019-05-14T02:21:37.986Z,99401.31
2019-05-14T02:24:08.040Z,99401.31
2019-05-14T02:26:38.003Z,99399.78
2019-05-14T02:29:08.023Z,99391.03
2019-05-14T02:31:39.558Z,99384.86
2019-05-14T02:34:10.347Z,99390.27
2019-05-14T02:36:41.023Z,99384.64
2019-05-14T02:39:13.278Z,99376.48
2019-05-14T02:41:43.412Z,99379.09
2019-05-14T02:44:13.387Z,99373.24
2019-05-14T02:46:45.306Z,99374.54
2019-05-14T02:49:19.247Z,99376.04
2019-05-14T02:51:50.309Z,99371.27
2019-05-14T02:54:20.602Z,99371.01
2019-05-14T02:56:51.168Z,99374.80
2019-05-14T02:59:21.351Z,99371.23
2019-05-14T03:01:51.455Z,99372.03
2019-05-14T03:04:21.451Z,99364.05
2019-05-14T03:06:51.517Z,99369.30
2019-05-14T03:09:21.602Z,99364.91
2019-05-14T03:11:51.845Z,99365.03
2019-05-14T03:14:22.010Z,99365.25
2019-05-14T03:16:52.184Z,99367.80
2019-05-14T03:19:22.216Z,99365.25
2019-05-14T03:21:52.308Z,99367.00
2019-05-14T03:24:22.599Z,99363.84
2019-05-14T03:26:52.945Z,99362.23
2019-05-14T03:29:26.070Z,99371.83
2019-05-14T03:31:55.307Z,99364.86
2019-05-14T03:34:25.374Z,99364.95
2019-05-14T03:36:55.367Z,99367.26
2019-05-14T03:39:25.497Z,99368.42
2019-05-14T03:41:58.726Z,99375.94
2019-05-14T03:44:29.164Z,99376.27
2019-05-14T03:47:04.694Z,99372.75
2019-05-14T03:49:31.559Z,99374.08
2019-05-14T03:52:01.769Z,99374.38
2019-05-14T03:54:31.954Z,99366.90
2019-05-14T03:57:02.123Z,99370.97
2019-05-14T03:59:32.242Z,99368.05
2019-05-14T04:02:02.739Z,99363.67
2019-05-14T04:04:33.149Z,99364.84
2019-05-14T04:07:09.400Z,99365.00
2019-05-14T04:09:41.304Z,99370.43
2019-05-14T04:12:12.933Z,99368.78
2019-05-14T04:14:46.490Z,99365.25
2019-05-14T04:17:32.130Z,99375.75
2019-05-14T04:19:55.077Z,99380.69
2019-05-14T04:22:25.593Z,99374.94
2019-05-14T04:24:59.731Z,99365.61
2019-05-14T04:27:32.793Z,99364.05
2019-05-14T04:30:03.857Z,99359.71
2019-05-14T04:32:34.794Z,99357.66
2019-05-14T04:35:05.201Z,99358.32
2019-05-14T04:37:35.388Z,99373.58
2019-05-14T04:40:09.662Z,99365.47
2019-05-14T04:42:40.407Z,99368.25
2019-05-14T04:45:11.552Z,99368.00
2019-05-14T04:47:42.547Z,99372.12
2019-05-14T04:50:12.967Z,99384.84
2019-05-14T04:52:43.036Z,99369.81
2019-05-14T04:55:13.691Z,99364.48
2019-05-14T04:57:43.903Z,99369.19
2019-05-14T05:00:14.106Z,99373.45
2019-05-14T05:02:44.705Z,99370.10
2019-05-14T05:05:15.747Z,99378.88
2019-05-14T05:07:48.961Z,99374.38
2019-05-14T05:10:19.266Z,99371.39
2019-05-14T05:12:49.568Z,99366.63
2019-05-14T05:15:19.981Z,99370.38
2019-05-14T05:17:53.030Z,99369.84
2019-05-14T05:20:22.327Z,99374.34
2019-05-14T05:22:52.457Z,99369.75
2019-05-14T05:25:23.995Z,99364.50
2019-05-14T05:27:56.451Z,99359.64
2019-05-14T05:30:26.445Z,99365.97
2019-05-14T05:32:56.554Z,99366.38
2019-05-14T05:35:29.037Z,99372.70
2019-05-14T05:37:58.482Z,99375.09
2019-05-14T05:40:29.124Z,99369.13
2019-05-14T05:42:59.144Z,99362.85
2019-05-14T05:45:29.175Z,99364.22
2019-05-14T05:48:01.773Z,99367.69
2019-05-14T05:50:31.278Z,99360.95
2019-05-14T05:53:04.420Z,99361.06
2019-05-14T05:55:39.260Z,99359.42
2019-05-14T05:58:12.658Z,99357.93
2019-05-14T06:00:49.534Z,99355.02
2019-05-14T06:03:20.897Z,99358.92
2019-05-14T06:05:52.084Z,99341.56
2019-05-14T06:08:23.724Z,99351.80
2019-05-14T06:10:58.895Z,99344.48
2019-05-14T06:13:28.855Z,99347.25
2019-05-14T06:15:59.401Z,99338.80
2019-05-14T06:18:34.356Z,99346.81
2019-05-14T06:21:03.382Z,99332.20
2019-05-14T06:23:33.585Z,99341.02
2019-05-14T06:26:04.030Z,99338.22
2019-05-14T06:28:34.165Z,99329.31
2019-05-14T06:31:04.232Z,99328.80
2019-05-14T06:33:34.226Z,99319.50
2019-05-14T06:36:04.299Z,99317.52
2019-05-14T06:38:34.731Z,99316.50
2019-05-14T06:41:08.375Z,99319.31
2019-05-14T06:43:39.216Z,99314.80
2019-05-14T06:46:10.212Z,99310.75
2019-05-14T06:48:40.363Z,99313.18
2019-05-14T06:51:10.975Z,99318.25
2019-05-14T06:53:41.558Z,99314.05
2019-05-14T06:56:12.103Z,99319.37
2019-05-14T06:58:42.231Z,99317.91
2019-05-14T07:01:12.640Z,99318.95
2019-05-14T07:03:42.932Z,99317.00
2019-05-14T07:06:13.042Z,99324.87
2019-05-14T07:08:44.765Z,99316.41
2019-05-14T07:11:18.896Z,99319.09
2019-05-14T07:13:49.167Z,99317.52
2019-05-14T07:16:20.152Z,99315.92
2019-05-14T07:18:53.915Z,99306.71
2019-05-14T07:21:23.425Z,99305.66
2019-05-14T07:23:53.899Z,99304.05
2019-05-14T07:26:24.135Z,99293.27
2019-05-14T07:28:54.405Z,99288.95
2019-05-14T07:31:24.580Z,99283.14
2019-05-14T07:33:54.753Z,99282.71
2019-05-14T07:36:25.047Z,99278.70
2019-05-14T07:38:56.759Z,99276.36
2019-05-14T07:41:28.440Z,99272.78
2019-05-14T07:43:58.759Z,99274.09
2019-05-14T07:46:29.057Z,99267.45
2019-05-14T07:49:07.531Z,99262.56
2019-05-14T07:51:31.223Z,99263.41
2019-05-14T07:54:01.759Z,99265.55
2019-05-14T07:56:31.868Z,99257.73
2019-05-14T07:59:02.605Z,99258.27
2019-05-14T08:01:33.448Z,99259.38
2019-05-14T08:04:03.649Z,99256.39
2019-05-14T08:06:34.173Z,99246.00
2019-05-14T08:09:08.636Z,99249.51
2019-05-14T08:11:39.227Z,99237.82
2019-05-14T08:14:09.703Z,99243.95
2019-05-14T08:16:43.031Z,99230.59
2019-05-14T08:19:24.192Z,99224.50
2019-05-14T08:21:45.129Z,99225.33
2019-05-14T08:24:18.997Z,99231.75
2019-05-14T08:36:28.956Z,99227.74
2019-05-14T08:48:12.184Z,99222.43
2019-05-14T08:51:02.107Z,99224.28
2019-05-14T08:54:39.007Z,99220.56
2019-05-14T09:00:24.255Z,99212.98
2019-05-14T09:10:04.998Z,99204.89
2019-05-14T09:13:44.241Z,99212.69
2019-05-14T09:42:07.928Z,99200.84
2019-05-14T09:47:50.828Z,99181.78
2019-05-14T09:50:55.551Z,99174.49
2019-05-14T09:53:43.235Z,99178.75
2019-05-14T09:57:08.327Z,99179.25
2019-05-14T09:59:54.104Z,99185.64
2019-05-14T10:10:35.026Z,99177.48
2019-05-14T10:13:05.066Z,99175.52
2019-05-14T10:15:35.173Z,99175.69
2019-05-14T10:18:05.294Z,99175.68
2019-05-14T10:20:41.107Z,99189.55
2019-05-14T10:23:09.090Z,99178.40
2019-05-14T10:25:42.238Z,99171.80
2019-05-14T10:28:10.439Z,99181.91
2019-05-14T10:30:41.132Z,99175.02
2019-05-14T10:33:14.890Z,99177.22
2019-05-14T10:35:43.060Z,99160.95
2019-05-14T10:38:13.064Z,99171.61
2019-05-14T10:40:43.154Z,99177.16
2019-05-14T10:43:13.109Z,99169.42
2019-05-14T10:45:43.176Z,99165.34
2019-05-14T10:48:13.130Z,99166.02
2019-05-14T10:50:56.305Z,99164.34
2019-05-14T10:53:15.700Z,99170.39
2019-05-14T10:55:45.663Z,99160.56
2019-05-14T10:58:19.215Z,99155.80
2019-05-14T11:00:49.508Z,99150.62
2019-05-14T11:03:19.092Z,99152.34
2019-05-14T11:05:49.273Z,99157.55
2019-05-14T11:08:19.288Z,99160.52
2019-05-14T11:10:49.914Z,99145.23
2019-05-14T11:13:20.086Z,99142.66
2019-05-14T11:15:50.046Z,99146.03
2019-05-14T11:18:20.172Z,99139.78
2019-05-14T11:20:51.498Z,99143.88
2019-05-14T11:23:21.916Z,99145.00
2019-05-14T11:25:51.817Z,99134.80
2019-05-14T11:28:21.958Z,99126.21
2019-05-14T11:30:52.030Z,99119.84
2019-05-14T11:33:22.055Z,99124.84
2019-05-14T11:35:51.975Z,99120.56
2019-05-14T11:38:29.766Z,99113.48
2019-05-14T11:40:53.801Z,99105.56
2019-05-14T11:43:23.767Z,99129.20
2019-05-14T11:45:53.680Z,99113.81
2019-05-14T11:48:23.712Z,99118.72
2019-05-14T11:50:53.628Z,99111.17
2019-05-14T11:53:23.708Z,99101.53
2019-05-14T11:55:53.865Z,99092.06
2019-05-14T11:58:23.813Z,99099.48
2019-05-14T12:00:53.805Z,99107.99
2019-05-14T12:03:23.907Z,99106.00
2019-05-14T12:05:53.932Z,99090.21
2019-05-14T12:08:23.941Z,99098.27
2019-05-14T12:10:54.101Z,99088.92
2019-05-14T12:13:29.867Z,99095.15
2019-05-14T12:15:59.137Z,99080.09
2019-05-14T12:18:29.337Z,99083.11
2019-05-14T12:20:59.535Z,99078.30
2019-05-14T12:23:29.995Z,99072.54
2019-05-14T12:25:59.989Z,99071.76
2019-05-14T12:28:30.034Z,99071.78
2019-05-14T12:31:00.116Z,99067.62
2019-05-14T12:33:31.343Z,99064.13
2019-05-14T12:36:02.474Z,99055.61
2019-05-14T12:38:32.532Z,99082.81
2019-05-14T12:41:02.626Z,99061.37
2019-05-14T12:43:32.590Z,99072.21
2019-05-14T12:46:02.558Z,99067.50
2019-05-14T12:48:32.510Z,99070.96
2019-05-14T12:51:02.664Z,99062.78
2019-05-14T12:53:32.611Z,99065.06
2019-05-14T12:56:02.518Z,99065.52
2019-05-14T12:58:32.502Z,99056.82
2019-05-14T13:01:02.516Z,99058.87
2019-05-14T13:03:32.593Z,99049.67
2019-05-14T13:06:02.497Z,99042.73
2019-05-14T13:08:32.457Z,99051.66
2019-05-14T13:11:02.580Z,99050.52
2019-05-14T13:13:32.695Z,99039.48
2019-05-14T13:16:04.510Z,99049.31
2019-05-14T13:18:34.575Z,99042.81
2019-05-14T13:21:04.640Z,99043.23
2019-05-14T13:23:34.718Z,99048.63
2019-05-14T13:26:04.775Z,99035.84
2019-05-14T13:28:34.718Z,99031.29
2019-05-14T13:31:04.666Z,99043.73
2019-05-14T13:33:34.610Z,99019.98
2019-05-14T13:36:04.644Z,99014.97
2019-05-14T13:38:34.650Z,99023.40
2019-05-14T13:41:04.803Z,99010.73
2019-05-14T13:43:34.767Z,99001.05
2019-05-14T13:46:04.907Z,99005.15
2019-05-14T13:48:38.776Z,99006.20
2019-05-14T13:51:08.960Z,99003.91
2019-05-14T13:53:39.207Z,99007.10
2019-05-14T13:56:09.442Z,99005.18
2019-05-14T13:58:39.402Z,99004.42
2019-05-14T14:01:10.196Z,99011.22
2019-05-14T14:03:48.054Z,99006.62
2019-05-14T14:06:12.184Z,98991.30
2019-05-14T14:08:42.706Z,98978.94
2019-05-14T14:11:13.060Z,98978.30
2019-05-14T14:13:42.981Z,98979.48
2019-05-14T14:16:15.088Z,98977.89
2019-05-14T14:18:44.600Z,98980.59
2019-05-14T14:21:14.571Z,98985.43
2019-05-14T14:23:45.000Z,98981.75
2019-05-14T14:26:15.037Z,98972.44
2019-05-14T14:28:44.961Z,98961.29
2019-05-14T14:43:26.368Z,98967.58
2019-05-14T14:45:59.195Z,98965.77
2019-05-14T14:48:30.260Z,98970.03
2019-05-14T14:50:59.797Z,98958.47
2019-05-14T14:53:46.149Z,98942.33
2019-05-14T14:56:02.326Z,98952.93
2019-05-14T14:58:32.337Z,98964.05
2019-05-14T15:01:02.451Z,98955.31
2019-05-14T15:03:32.580Z,98953.89
2019-05-14T15:06:02.900Z,98946.34
2019-05-14T15:08:32.911Z,98960.29
2019-05-14T15:11:02.873Z,98940.97
2019-05-14T15:13:32.803Z,98937.88
2019-05-14T15:19:35.675Z,98938.80
2019-05-14T15:22:08.648Z,98937.52
2019-05-14T15:24:37.488Z,98936.28
2019-05-14T15:27:14.829Z,98933.87
2019-05-14T15:29:42.861Z,98951.12
2019-05-14T15:32:11.460Z,98948.50
2019-05-14T15:34:41.416Z,98978.81
2019-05-14T15:37:11.411Z,98966.45
2019-05-14T15:39:41.496Z,98953.45
2019-05-14T15:42:13.831Z,98950.50
2019-05-14T15:44:51.987Z,98943.70
2019-05-14T15:47:15.540Z,98946.22
2019-05-14T15:49:45.440Z,98942.91
2019-05-14T15:52:15.403Z,98941.43
2019-05-14T15:54:47.211Z,98933.35
2019-05-14T16:08:43.921Z,98938.47
2019-05-14T16:11:13.874Z,98929.84
2019-05-14T16:13:43.804Z,98926.77
2019-05-14T16:16:15.009Z,98922.48
2019-05-14T16:18:44.939Z,98910.37
2019-05-14T16:21:15.080Z,98911.78
2019-05-14T16:23:45.284Z,98909.39
2019-05-14T16:37:49.266Z,98924.29
2019-05-14T16:47:39.892Z,98921.42
2019-05-14T16:57:29.596Z,98924.02
2019-05-14T16:59:59.620Z,98922.47
2019-05-14T17:02:29.775Z,98923.80
2019-05-14T17:04:59.711Z,98928.72
2019-05-14T17:07:29.831Z,98921.52
2019-05-14T17:10:00.499Z,98923.08
2019-05-14T17:12:46.938Z,98924.89
2019-05-14T17:15:02.230Z,98922.33
2019-05-14T17:17:32.165Z,98914.70
2019-05-14T17:20:02.261Z,98922.79
2019-05-14T17:26:17.441Z,98933.70
2019-05-14T17:28:48.848Z,98922.07
2019-05-14T17:31:19.439Z,98923.84
2019-05-14T17:33:49.527Z,98914.26
2019-05-14T17:36:19.597Z,98922.20
2019-05-14T17:38:49.865Z,98930.58
2019-05-14T17:41:20.109Z,98921.48
2019-05-14T17:43:50.153Z,98917.38
2019-05-14T17:46:20.415Z,98920.78
2019-05-14T17:48:51.164Z,98914.61
2019-05-14T17:51:21.178Z,98926.88
2019-05-14T17:53:51.432Z,98915.05
2019-05-14T17:56:22.970Z,98918.93
2019-05-14T18:02:25.048Z,98913.63
2019-05-14T18:04:57.036Z,98898.69
2019-05-14T18:07:28.566Z,98911.86
2019-05-14T18:09:59.246Z,98909.00
2019-05-14T18:12:30.525Z,98909.81
2019-05-14T18:15:00.878Z,98903.69
2019-05-14T18:17:31.310Z,98909.66
2019-05-14T18:23:53.085Z,98909.22
2019-05-14T18:26:23.388Z,98906.79
2019-05-14T18:28:53.487Z,98905.33
2019-05-14T18:31:23.464Z,98901.88
2019-05-14T18:33:53.590Z,98912.47
2019-05-14T18:36:23.576Z,98909.13
2019-05-14T18:38:53.593Z,98912.34
2019-05-14T18:41:23.839Z,98913.94
2019-05-14T18:43:53.883Z,98919.37
2019-05-14T18:46:24.108Z,98917.78
2019-05-14T18:48:54.329Z,98922.27
2019-05-14T18:51:24.309Z,98923.23
2019-05-14T18:53:54.686Z,98924.35
2019-05-14T19:00:10.597Z,98924.34
2019-05-14T19:02:40.608Z,98916.86
2019-05-14T19:05:11.199Z,98918.27
2019-05-14T19:07:41.257Z,98916.07
2019-05-14T19:10:12.805Z,98913.68
2019-05-14T19:12:42.860Z,98912.39
2019-05-14T19:15:13.132Z,98919.99
2019-05-14T19:17:43.402Z,98919.37
2019-05-14T19:20:13.594Z,98917.45
2019-05-14T19:26:34.366Z,98918.74
2019-05-14T19:29:00.175Z,98925.09
2019-05-14T19:31:30.187Z,98926.69
2019-05-14T19:34:00.120Z,98929.73
2019-05-14T19:36:30.054Z,98929.91
2019-05-14T19:38:59.986Z,98927.69
2019-05-14T19:45:22.326Z,98929.27
2019-05-14T19:47:52.969Z,98931.50
2019-05-14T19:50:23.597Z,98937.49
2019-05-14T19:52:53.520Z,98937.67
2019-05-14T19:55:23.715Z,98938.14
2019-05-14T19:57:53.731Z,98942.78
2019-05-14T20:00:28.808Z,98951.55
2019-05-14T20:02:58.875Z,98953.14
2019-05-14T20:09:20.863Z,98962.67
2019-05-14T20:11:51.644Z,98960.85
2019-05-14T20:14:21.630Z,98940.53
2019-05-14T20:16:51.578Z,98966.91
2019-05-14T20:38:29.344Z,98962.94
2019-05-14T20:41:00.568Z,98963.71
2019-05-14T20:43:30.852Z,98967.62
2019-05-14T20:46:00.968Z,98964.13
2019-05-14T20:48:31.447Z,98970.11
2019-05-14T20:51:01.404Z,98969.36
2019-05-14T20:53:31.348Z,98966.51
2019-05-14T20:56:02.060Z,98963.16
2019-05-14T20:58:32.021Z,98960.55
2019-05-14T21:01:02.286Z,98960.20
2019-05-14T21:07:17.759Z,98959.39
2019-05-14T21:09:49.225Z,98961.42
2019-05-14T21:12:19.533Z,98965.45
2019-05-14T21:14:49.425Z,98967.59
2019-05-14T21:21:11.166Z,98958.07
2019-05-14T21:23:41.130Z,98966.36
2019-05-14T21:26:11.290Z,98962.51
2019-05-14T21:28:41.225Z,98965.54
2019-05-14T21:31:11.255Z,98958.63
2019-05-14T21:56:41.370Z,98966.19
2019-05-14T22:29:18.930Z,98941.37
2019-05-14T22:31:48.868Z,98939.70
2019-05-14T22:34:18.848Z,98935.36
2019-05-14T22:40:39.674Z,98940.24
2019-05-14T22:43:09.633Z,98930.78
2019-05-14T22:45:40.420Z,98932.33
2019-05-14T22:48:10.373Z,98932.13
2019-05-14T22:50:41.474Z,98927.45
2019-05-14T22:53:11.702Z,98927.81
2019-05-14T22:55:42.359Z,98922.88
2019-05-14T22:58:24.543Z,98917.88
2019-05-14T23:00:47.769Z,98916.70
2019-05-14T23:03:15.675Z,98915.69
2019-05-14T23:05:48.386Z,98911.64
2019-05-14T23:12:12.103Z,98914.34
2019-05-14T23:39:15.485Z,98912.09
2019-05-14T23:51:53.808Z,98903.59
2019-05-14T23:54:23.783Z,98891.70
2019-05-14T23:56:53.704Z,98893.06
2019-05-14T23:59:24.499Z,98892.47
